Terminal Aerodrome Forecast
Issued by NWS Spokane, WA

Home | Current Version | Previous Version | Text Only | Print | Product List | Glossary On
Versions: 1 2 3 4 5 6 7 8 9 10 11 12 13 14 15
000
FTUS46 KOTX 010521
TAFLWS
TAF
KLWS 010521Z 0106/0206 13004KT P6SM SCT160 BKN250
     FM011400 06004KT P6SM SCT150 BKN200
     FM012000 32007G16KT P6SM SCT100 BKN200
     FM020300 15004KT P6SM FEW100 SCT200=

USA.gov is the U.S. government's official web portal to all federal, state and local government web resources and services.